sensor_id;sensor_type;location;lat;lon;timestamp;P1;durP1;ratioP1;P2;durP2;ratioP2
27225;SDS011;14732;51.074;3.788;2024-03-22T00:00:06;34.03;;;18.13;;
27225;SDS011;14732;51.074;3.788;2024-03-22T00:02:36;34.97;;;17.75;;
27225;SDS011;14732;51.074;3.788;2024-03-22T00:05:04;31.10;;;16.38;;
27225;SDS011;14732;51.074;3.788;2024-03-22T00:07:30;30.65;;;15.77;;
27225;SDS011;14732;51.074;3.788;2024-03-22T00:09:56;27.73;;;16.58;;
27225;SDS011;14732;51.074;3.788;2024-03-22T00:12:21;32.47;;;15.40;;
27225;SDS011;14732;51.074;3.788;2024-03-22T00:14:47;31.58;;;15.88;;
27225;SDS011;14732;51.074;3.788;2024-03-22T00:17:13;31.92;;;15.73;;
27225;SDS011;14732;51.074;3.788;2024-03-22T00:19:39;28.52;;;16.20;;
27225;SDS011;14732;51.074;3.788;2024-03-22T00:22:05;31.42;;;16.95;;
27225;SDS011;14732;51.074;3.788;2024-03-22T00:24:30;33.40;;;16.02;;
27225;SDS011;14732;51.074;3.788;2024-03-22T00:26:56;30.33;;;16.27;;
27225;SDS011;14732;51.074;3.788;2024-03-22T00:29:21;27.60;;;15.65;;
27225;SDS011;14732;51.074;3.788;2024-03-22T00:31:47;29.95;;;15.18;;
27225;SDS011;14732;51.074;3.788;2024-03-22T00:34:12;29.48;;;15.25;;
27225;SDS011;14732;51.074;3.788;2024-03-22T00:36:38;32.15;;;16.33;;
27225;SDS011;14732;51.074;3.788;2024-03-22T00:39:04;30.85;;;15.73;;
27225;SDS011;14732;51.074;3.788;2024-03-22T00:41:30;29.40;;;17.05;;
27225;SDS011;14732;51.074;3.788;2024-03-22T00:43:56;31.65;;;16.23;;
27225;SDS011;14732;51.074;3.788;2024-03-22T00:46:22;30.98;;;16.52;;
27225;SDS011;14732;51.074;3.788;2024-03-22T00:48:48;35.35;;;17.48;;
27225;SDS011;14732;51.074;3.788;2024-03-22T00:51:14;29.30;;;15.60;;
27225;SDS011;14732;51.074;3.788;2024-03-22T00:53:39;31.42;;;16.75;;
27225;SDS011;14732;51.074;3.788;2024-03-22T00:56:05;31.30;;;16.42;;
27225;SDS011;14732;51.074;3.788;2024-03-22T00:58:31;30.35;;;15.73;;
27225;SDS011;14732;51.074;3.788;2024-03-22T01:00:56;37.70;;;16.88;;
27225;SDS011;14732;51.074;3.788;2024-03-22T01:03:22;30.45;;;16.45;;
27225;SDS011;14732;51.074;3.788;2024-03-22T01:05:48;31.95;;;15.95;;
27225;SDS011;14732;51.074;3.788;2024-03-22T01:08:14;31.15;;;17.15;;
27225;SDS011;14732;51.074;3.788;2024-03-22T01:10:40;34.30;;;17.15;;
27225;SDS011;14732;51.074;3.788;2024-03-22T01:13:05;34.30;;;17.02;;
27225;SDS011;14732;51.074;3.788;2024-03-22T01:15:31;33.60;;;17.15;;
27225;SDS011;14732;51.074;3.788;2024-03-22T01:17:56;34.95;;;17.45;;
27225;SDS011;14732;51.074;3.788;2024-03-22T01:20:22;33.92;;;16.92;;
27225;SDS011;14732;51.074;3.788;2024-03-22T01:22:48;35.45;;;17.13;;
27225;SDS011;14732;51.074;3.788;2024-03-22T01:25:14;33.88;;;17.38;;
27225;SDS011;14732;51.074;3.788;2024-03-22T01:27:40;36.72;;;17.15;;
27225;SDS011;14732;51.074;3.788;2024-03-22T01:30:05;35.22;;;16.58;;
27225;SDS011;14732;51.074;3.788;2024-03-22T01:32:31;36.70;;;17.50;;
27225;SDS011;14732;51.074;3.788;2024-03-22T01:34:57;40.22;;;18.10;;
27225;SDS011;14732;51.074;3.788;2024-03-22T01:37:23;38.42;;;17.30;;
27225;SDS011;14732;51.074;3.788;2024-03-22T01:39:48;37.55;;;17.45;;
27225;SDS011;14732;51.074;3.788;2024-03-22T01:42:14;36.35;;;17.58;;
27225;SDS011;14732;51.074;3.788;2024-03-22T01:44:40;33.72;;;16.42;;
27225;SDS011;14732;51.074;3.788;2024-03-22T01:47:06;36.72;;;17.90;;
27225;SDS011;14732;51.074;3.788;2024-03-22T01:49:32;38.83;;;17.42;;
27225;SDS011;14732;51.074;3.788;2024-03-22T01:51:58;37.58;;;17.73;;
27225;SDS011;14732;51.074;3.788;2024-03-22T01:54:23;36.22;;;17.45;;
27225;SDS011;14732;51.074;3.788;2024-03-22T01:56:49;36.65;;;17.20;;
27225;SDS011;14732;51.074;3.788;2024-03-22T01:59:15;38.75;;;17.58;;
27225;SDS011;14732;51.074;3.788;2024-03-22T02:01:41;37.58;;;16.90;;
27225;SDS011;14732;51.074;3.788;2024-03-22T02:04:07;40.22;;;18.42;;
27225;SDS011;14732;51.074;3.788;2024-03-22T02:06:33;33.95;;;16.30;;
27225;SDS011;14732;51.074;3.788;2024-03-22T02:08:58;34.90;;;15.80;;
27225;SDS011;14732;51.074;3.788;2024-03-22T02:11:27;38.25;;;15.77;;
27225;SDS011;14732;51.074;3.788;2024-03-22T02:13:54;30.27;;;15.82;;
27225;SDS011;14732;51.074;3.788;2024-03-22T02:16:19;32.83;;;15.23;;
27225;SDS011;14732;51.074;3.788;2024-03-22T02:18:45;33.85;;;16.23;;
27225;SDS011;14732;51.074;3.788;2024-03-22T02:21:11;33.50;;;15.40;;
27225;SDS011;14732;51.074;3.788;2024-03-22T02:23:37;29.73;;;15.30;;
27225;SDS011;14732;51.074;3.788;2024-03-22T02:26:04;30.67;;;15.13;;
27225;SDS011;14732;51.074;3.788;2024-03-22T02:28:30;32.67;;;14.93;;
27225;SDS011;14732;51.074;3.788;2024-03-22T02:30:57;30.73;;;15.50;;
27225;SDS011;14732;51.074;3.788;2024-03-22T02:33:24;30.48;;;15.10;;
27225;SDS011;14732;51.074;3.788;2024-03-22T02:35:50;26.40;;;15.07;;
27225;SDS011;14732;51.074;3.788;2024-03-22T02:38:16;29.00;;;14.48;;
27225;SDS011;14732;51.074;3.788;2024-03-22T02:40:45;30.77;;;16.13;;
27225;SDS011;14732;51.074;3.788;2024-03-22T02:43:11;28.17;;;15.30;;
27225;SDS011;14732;51.074;3.788;2024-03-22T02:45:37;25.75;;;13.80;;
27225;SDS011;14732;51.074;3.788;2024-03-22T02:48:04;28.05;;;14.25;;
27225;SDS011;14732;51.074;3.788;2024-03-22T02:50:33;28.10;;;15.45;;
27225;SDS011;14732;51.074;3.788;2024-03-22T02:52:59;28.38;;;15.38;;
27225;SDS011;14732;51.074;3.788;2024-03-22T02:55:25;26.90;;;15.38;;
27225;SDS011;14732;51.074;3.788;2024-03-22T02:57:51;26.02;;;15.00;;
27225;SDS011;14732;51.074;3.788;2024-03-22T03:00:16;28.52;;;14.90;;
27225;SDS011;14732;51.074;3.788;2024-03-22T03:02:43;28.88;;;15.98;;
27225;SDS011;14732;51.074;3.788;2024-03-22T03:05:09;27.95;;;14.98;;
27225;SDS011;14732;51.074;3.788;2024-03-22T03:07:36;27.73;;;15.07;;
27225;SDS011;14732;51.074;3.788;2024-03-22T03:10:01;27.17;;;15.93;;
27225;SDS011;14732;51.074;3.788;2024-03-22T03:12:27;29.02;;;15.02;;
27225;SDS011;14732;51.074;3.788;2024-03-22T03:14:53;25.85;;;14.43;;
27225;SDS011;14732;51.074;3.788;2024-03-22T03:17:18;28.42;;;15.02;;
27225;SDS011;14732;51.074;3.788;2024-03-22T03:19:44;28.30;;;14.75;;
27225;SDS011;14732;51.074;3.788;2024-03-22T03:22:10;27.40;;;14.75;;
27225;SDS011;14732;51.074;3.788;2024-03-22T03:24:35;24.42;;;14.02;;
27225;SDS011;14732;51.074;3.788;2024-03-22T03:27:01;26.92;;;14.38;;
27225;SDS011;14732;51.074;3.788;2024-03-22T03:29:27;25.55;;;13.65;;
27225;SDS011;14732;51.074;3.788;2024-03-22T03:31:53;23.88;;;13.40;;
27225;SDS011;14732;51.074;3.788;2024-03-22T03:34:19;28.80;;;13.07;;
27225;SDS011;14732;51.074;3.788;2024-03-22T03:36:45;23.33;;;12.80;;
27225;SDS011;14732;51.074;3.788;2024-03-22T03:39:11;23.98;;;12.35;;
27225;SDS011;14732;51.074;3.788;2024-03-22T03:41:37;22.63;;;11.95;;
27225;SDS011;14732;51.074;3.788;2024-03-22T03:44:02;26.60;;;12.23;;
27225;SDS011;14732;51.074;3.788;2024-03-22T03:46:28;20.00;;;10.65;;
27225;SDS011;14732;51.074;3.788;2024-03-22T03:48:54;21.50;;;11.52;;
27225;SDS011;14732;51.074;3.788;2024-03-22T03:51:19;21.38;;;11.00;;
27225;SDS011;14732;51.074;3.788;2024-03-22T03:53:45;24.00;;;11.02;;
27225;SDS011;14732;51.074;3.788;2024-03-22T03:56:10;17.77;;;10.38;;
27225;SDS011;14732;51.074;3.788;2024-03-22T03:58:36;20.58;;;10.23;;
27225;SDS011;14732;51.074;3.788;2024-03-22T04:01:08;22.33;;;11.05;;
27225;SDS011;14732;51.074;3.788;2024-03-22T04:03:34;21.48;;;10.88;;
27225;SDS011;14732;51.074;3.788;2024-03-22T04:06:00;21.58;;;10.88;;
27225;SDS011;14732;51.074;3.788;2024-03-22T04:08:26;21.38;;;11.40;;
27225;SDS011;14732;51.074;3.788;2024-03-22T04:10:53;21.17;;;11.43;;
27225;SDS011;14732;51.074;3.788;2024-03-22T04:13:23;22.15;;;11.73;;
27225;SDS011;14732;51.074;3.788;2024-03-22T04:15:48;22.52;;;11.27;;
27225;SDS011;14732;51.074;3.788;2024-03-22T04:18:14;20.98;;;11.98;;
27225;SDS011;14732;51.074;3.788;2024-03-22T04:20:40;23.05;;;11.48;;
27225;SDS011;14732;51.074;3.788;2024-03-22T04:23:05;23.58;;;11.25;;
27225;SDS011;14732;51.074;3.788;2024-03-22T04:25:31;22.33;;;12.15;;
27225;SDS011;14732;51.074;3.788;2024-03-22T04:27:56;21.05;;;11.15;;
27225;SDS011;14732;51.074;3.788;2024-03-22T04:30:22;21.90;;;11.77;;
27225;SDS011;14732;51.074;3.788;2024-03-22T04:32:48;21.30;;;11.40;;
27225;SDS011;14732;51.074;3.788;2024-03-22T04:35:13;19.55;;;11.43;;
27225;SDS011;14732;51.074;3.788;2024-03-22T04:37:39;20.55;;;11.63;;
27225;SDS011;14732;51.074;3.788;2024-03-22T04:40:05;21.33;;;12.18;;
27225;SDS011;14732;51.074;3.788;2024-03-22T04:42:31;21.13;;;11.35;;
27225;SDS011;14732;51.074;3.788;2024-03-22T04:44:56;20.67;;;11.57;;
27225;SDS011;14732;51.074;3.788;2024-03-22T04:47:22;19.60;;;11.02;;
27225;SDS011;14732;51.074;3.788;2024-03-22T04:49:48;19.52;;;10.70;;
27225;SDS011;14732;51.074;3.788;2024-03-22T04:52:14;21.85;;;10.93;;
27225;SDS011;14732;51.074;3.788;2024-03-22T04:54:40;21.10;;;10.50;;
27225;SDS011;14732;51.074;3.788;2024-03-22T04:57:06;21.80;;;11.15;;
27225;SDS011;14732;51.074;3.788;2024-03-22T04:59:31;21.77;;;11.15;;
27225;SDS011;14732;51.074;3.788;2024-03-22T05:01:57;18.90;;;9.98;;
27225;SDS011;14732;51.074;3.788;2024-03-22T05:04:22;21.52;;;10.43;;
27225;SDS011;14732;51.074;3.788;2024-03-22T05:06:48;18.77;;;9.88;;
27225;SDS011;14732;51.074;3.788;2024-03-22T05:09:14;18.02;;;10.10;;
27225;SDS011;14732;51.074;3.788;2024-03-22T05:11:40;19.02;;;10.48;;
27225;SDS011;14732;51.074;3.788;2024-03-22T05:14:05;17.75;;;10.35;;
27225;SDS011;14732;51.074;3.788;2024-03-22T05:16:31;16.80;;;10.57;;
27225;SDS011;14732;51.074;3.788;2024-03-22T05:18:56;16.42;;;9.52;;
27225;SDS011;14732;51.074;3.788;2024-03-22T05:21:22;17.50;;;9.98;;
27225;SDS011;14732;51.074;3.788;2024-03-22T05:23:48;20.85;;;10.50;;
27225;SDS011;14732;51.074;3.788;2024-03-22T05:26:13;16.48;;;9.55;;
27225;SDS011;14732;51.074;3.788;2024-03-22T05:28:39;18.23;;;10.10;;
27225;SDS011;14732;51.074;3.788;2024-03-22T05:31:05;19.95;;;9.70;;
27225;SDS011;14732;51.074;3.788;2024-03-22T05:33:30;19.48;;;10.25;;
27225;SDS011;14732;51.074;3.788;2024-03-22T05:35:56;18.88;;;9.73;;
27225;SDS011;14732;51.074;3.788;2024-03-22T05:38:22;19.35;;;10.38;;
27225;SDS011;14732;51.074;3.788;2024-03-22T05:40:47;19.73;;;10.45;;
27225;SDS011;14732;51.074;3.788;2024-03-22T05:43:13;17.75;;;10.50;;
27225;SDS011;14732;51.074;3.788;2024-03-22T05:45:39;14.40;;;9.63;;
27225;SDS011;14732;51.074;3.788;2024-03-22T05:48:05;20.02;;;11.10;;
27225;SDS011;14732;51.074;3.788;2024-03-22T05:50:31;19.98;;;10.40;;
27225;SDS011;14732;51.074;3.788;2024-03-22T05:52:56;16.83;;;9.82;;
27225;SDS011;14732;51.074;3.788;2024-03-22T05:55:22;13.90;;;8.82;;
27225;SDS011;14732;51.074;3.788;2024-03-22T05:57:47;16.50;;;9.50;;
27225;SDS011;14732;51.074;3.788;2024-03-22T06:00:14;15.85;;;9.38;;
27225;SDS011;14732;51.074;3.788;2024-03-22T06:02:39;18.30;;;9.25;;
27225;SDS011;14732;51.074;3.788;2024-03-22T06:05:05;16.70;;;10.02;;
27225;SDS011;14732;51.074;3.788;2024-03-22T06:07:31;16.48;;;9.98;;
27225;SDS011;14732;51.074;3.788;2024-03-22T06:10:05;15.95;;;10.70;;
27225;SDS011;14732;51.074;3.788;2024-03-22T06:12:31;18.00;;;10.35;;
27225;SDS011;14732;51.074;3.788;2024-03-22T06:14:57;15.52;;;9.73;;
27225;SDS011;14732;51.074;3.788;2024-03-22T06:17:22;16.85;;;9.82;;
27225;SDS011;14732;51.074;3.788;2024-03-22T06:19:48;15.38;;;10.10;;
27225;SDS011;14732;51.074;3.788;2024-03-22T06:22:13;15.15;;;9.30;;
27225;SDS011;14732;51.074;3.788;2024-03-22T06:24:39;14.20;;;9.43;;
27225;SDS011;14732;51.074;3.788;2024-03-22T06:27:05;15.80;;;9.60;;
27225;SDS011;14732;51.074;3.788;2024-03-22T06:29:32;16.42;;;9.48;;
27225;SDS011;14732;51.074;3.788;2024-03-22T06:31:57;15.25;;;8.77;;
27225;SDS011;14732;51.074;3.788;2024-03-22T06:34:23;11.38;;;7.85;;
27225;SDS011;14732;51.074;3.788;2024-03-22T06:36:49;12.82;;;8.48;;
27225;SDS011;14732;51.074;3.788;2024-03-22T06:39:15;12.30;;;7.93;;
27225;SDS011;14732;51.074;3.788;2024-03-22T06:41:41;16.73;;;8.95;;
27225;SDS011;14732;51.074;3.788;2024-03-22T06:44:07;14.32;;;8.52;;
27225;SDS011;14732;51.074;3.788;2024-03-22T06:46:36;13.23;;;8.98;;
27225;SDS011;14732;51.074;3.788;2024-03-22T06:49:02;16.17;;;8.50;;
27225;SDS011;14732;51.074;3.788;2024-03-22T06:51:28;13.35;;;8.77;;
27225;SDS011;14732;51.074;3.788;2024-03-22T06:53:53;14.32;;;8.98;;
27225;SDS011;14732;51.074;3.788;2024-03-22T06:56:19;14.75;;;8.95;;
27225;SDS011;14732;51.074;3.788;2024-03-22T06:58:45;13.35;;;8.77;;
27225;SDS011;14732;51.074;3.788;2024-03-22T07:01:11;12.40;;;7.72;;
27225;SDS011;14732;51.074;3.788;2024-03-22T07:03:37;12.00;;;7.53;;
27225;SDS011;14732;51.074;3.788;2024-03-22T07:06:02;13.52;;;8.20;;
27225;SDS011;14732;51.074;3.788;2024-03-22T07:08:29;13.30;;;7.38;;
27225;SDS011;14732;51.074;3.788;2024-03-22T07:10:54;11.70;;;6.88;;
27225;SDS011;14732;51.074;3.788;2024-03-22T07:13:20;13.55;;;6.32;;
27225;SDS011;14732;51.074;3.788;2024-03-22T07:15:46;10.57;;;5.95;;
27225;SDS011;14732;51.074;3.788;2024-03-22T07:18:14;10.18;;;5.60;;
27225;SDS011;14732;51.074;3.788;2024-03-22T07:20:41;9.82;;;6.03;;
27225;SDS011;14732;51.074;3.788;2024-03-22T07:23:07;10.00;;;5.60;;
27225;SDS011;14732;51.074;3.788;2024-03-22T07:25:33;7.55;;;5.53;;
27225;SDS011;14732;51.074;3.788;2024-03-22T07:27:59;9.98;;;5.72;;
27225;SDS011;14732;51.074;3.788;2024-03-22T07:30:24;9.23;;;5.63;;
27225;SDS011;14732;51.074;3.788;2024-03-22T07:32:50;9.73;;;5.70;;
27225;SDS011;14732;51.074;3.788;2024-03-22T07:35:16;11.35;;;5.82;;
27225;SDS011;14732;51.074;3.788;2024-03-22T07:37:41;11.65;;;6.47;;
27225;SDS011;14732;51.074;3.788;2024-03-22T07:40:07;9.57;;;6.05;;
27225;SDS011;14732;51.074;3.788;2024-03-22T07:42:33;12.93;;;6.88;;
27225;SDS011;14732;51.074;3.788;2024-03-22T07:44:59;17.80;;;6.95;;
27225;SDS011;14732;51.074;3.788;2024-03-22T07:47:25;13.02;;;6.30;;
27225;SDS011;14732;51.074;3.788;2024-03-22T07:49:50;10.98;;;7.35;;
27225;SDS011;14732;51.074;3.788;2024-03-22T07:52:16;13.93;;;6.45;;
27225;SDS011;14732;51.074;3.788;2024-03-22T07:54:41;15.77;;;7.78;;
27225;SDS011;14732;51.074;3.788;2024-03-22T07:57:07;14.07;;;6.47;;
27225;SDS011;14732;51.074;3.788;2024-03-22T07:59:33;14.07;;;7.07;;
27225;SDS011;14732;51.074;3.788;2024-03-22T08:01:59;13.95;;;7.00;;
27225;SDS011;14732;51.074;3.788;2024-03-22T08:04:28;10.73;;;6.32;;
27225;SDS011;14732;51.074;3.788;2024-03-22T08:06:53;13.75;;;6.57;;
27225;SDS011;14732;51.074;3.788;2024-03-22T08:09:19;10.57;;;6.38;;
27225;SDS011;14732;51.074;3.788;2024-03-22T08:11:45;12.70;;;5.60;;
27225;SDS011;14732;51.074;3.788;2024-03-22T08:14:10;9.63;;;5.78;;
27225;SDS011;14732;51.074;3.788;2024-03-22T08:16:36;10.25;;;5.55;;
27225;SDS011;14732;51.074;3.788;2024-03-22T08:19:01;11.43;;;5.60;;
27225;SDS011;14732;51.074;3.788;2024-03-22T08:21:27;10.90;;;5.47;;
27225;SDS011;14732;51.074;3.788;2024-03-22T08:23:53;11.65;;;5.72;;
27225;SDS011;14732;51.074;3.788;2024-03-22T08:26:19;11.07;;;5.75;;
27225;SDS011;14732;51.074;3.788;2024-03-22T08:28:46;13.05;;;5.28;;
27225;SDS011;14732;51.074;3.788;2024-03-22T08:31:12;15.20;;;5.47;;
27225;SDS011;14732;51.074;3.788;2024-03-22T08:33:38;9.60;;;5.30;;
27225;SDS011;14732;51.074;3.788;2024-03-22T08:36:04;11.15;;;5.78;;
27225;SDS011;14732;51.074;3.788;2024-03-22T08:38:30;13.05;;;6.00;;
27225;SDS011;14732;51.074;3.788;2024-03-22T08:40:55;13.27;;;5.38;;
27225;SDS011;14732;51.074;3.788;2024-03-22T08:43:21;9.45;;;5.07;;
27225;SDS011;14732;51.074;3.788;2024-03-22T08:45:52;11.63;;;5.50;;
27225;SDS011;14732;51.074;3.788;2024-03-22T08:48:18;13.57;;;5.70;;
27225;SDS011;14732;51.074;3.788;2024-03-22T08:50:44;17.95;;;5.78;;
27225;SDS011;14732;51.074;3.788;2024-03-22T08:53:10;16.63;;;6.05;;
27225;SDS011;14732;51.074;3.788;2024-03-22T08:55:35;12.52;;;5.45;;
27225;SDS011;14732;51.074;3.788;2024-03-22T08:58:01;10.95;;;5.50;;
27225;SDS011;14732;51.074;3.788;2024-03-22T09:00:28;17.50;;;6.17;;
27225;SDS011;14732;51.074;3.788;2024-03-22T09:02:54;11.35;;;5.22;;
27225;SDS011;14732;51.074;3.788;2024-03-22T09:05:20;13.32;;;5.55;;
27225;SDS011;14732;51.074;3.788;2024-03-22T09:07:46;13.18;;;5.65;;
27225;SDS011;14732;51.074;3.788;2024-03-22T09:10:12;14.35;;;5.55;;
27225;SDS011;14732;51.074;3.788;2024-03-22T09:12:37;13.13;;;5.82;;
27225;SDS011;14732;51.074;3.788;2024-03-22T09:15:03;9.68;;;5.18;;
27225;SDS011;14732;51.074;3.788;2024-03-22T09:17:29;11.30;;;4.65;;
27225;SDS011;14732;51.074;3.788;2024-03-22T09:19:54;13.73;;;5.38;;
27225;SDS011;14732;51.074;3.788;2024-03-22T09:22:20;11.85;;;5.60;;
27225;SDS011;14732;51.074;3.788;2024-03-22T09:24:47;18.85;;;5.72;;
27225;SDS011;14732;51.074;3.788;2024-03-22T09:27:12;12.07;;;5.10;;
27225;SDS011;14732;51.074;3.788;2024-03-22T09:29:38;17.60;;;5.55;;
27225;SDS011;14732;51.074;3.788;2024-03-22T09:32:03;12.38;;;5.22;;
27225;SDS011;14732;51.074;3.788;2024-03-22T09:34:29;10.38;;;5.18;;
27225;SDS011;14732;51.074;3.788;2024-03-22T09:36:56;12.68;;;5.05;;
27225;SDS011;14732;51.074;3.788;2024-03-22T09:39:21;14.73;;;5.38;;
27225;SDS011;14732;51.074;3.788;2024-03-22T09:41:47;12.60;;;5.60;;
27225;SDS011;14732;51.074;3.788;2024-03-22T09:44:17;16.30;;;5.93;;
27225;SDS011;14732;51.074;3.788;2024-03-22T09:46:47;11.50;;;5.35;;
27225;SDS011;14732;51.074;3.788;2024-03-22T09:49:13;8.23;;;4.22;;
27225;SDS011;14732;51.074;3.788;2024-03-22T09:51:39;14.23;;;5.28;;
27225;SDS011;14732;51.074;3.788;2024-03-22T09:54:06;9.13;;;4.53;;
27225;SDS011;14732;51.074;3.788;2024-03-22T09:56:33;9.38;;;4.07;;
27225;SDS011;14732;51.074;3.788;2024-03-22T09:59:00;12.95;;;4.68;;
27225;SDS011;14732;51.074;3.788;2024-03-22T10:01:25;11.93;;;5.15;;
27225;SDS011;14732;51.074;3.788;2024-03-22T10:03:51;12.85;;;4.95;;
27225;SDS011;14732;51.074;3.788;2024-03-22T10:06:18;12.90;;;4.60;;
27225;SDS011;14732;51.074;3.788;2024-03-22T10:08:44;10.05;;;4.38;;
27225;SDS011;14732;51.074;3.788;2024-03-22T10:11:10;14.15;;;4.53;;
27225;SDS011;14732;51.074;3.788;2024-03-22T10:13:36;10.93;;;4.32;;
27225;SDS011;14732;51.074;3.788;2024-03-22T10:16:02;11.43;;;4.68;;
27225;SDS011;14732;51.074;3.788;2024-03-22T10:18:27;14.88;;;4.65;;
27225;SDS011;14732;51.074;3.788;2024-03-22T10:21:05;14.38;;;4.55;;
27225;SDS011;14732;51.074;3.788;2024-03-22T10:23:31;12.93;;;4.47;;
27225;SDS011;14732;51.074;3.788;2024-03-22T10:25:58;9.60;;;4.25;;
27225;SDS011;14732;51.074;3.788;2024-03-22T10:28:24;12.80;;;4.75;;
27225;SDS011;14732;51.074;3.788;2024-03-22T10:30:50;15.25;;;4.32;;
27225;SDS011;14732;51.074;3.788;2024-03-22T10:33:20;12.98;;;4.40;;
27225;SDS011;14732;51.074;3.788;2024-03-22T10:35:52;11.85;;;4.32;;
27225;SDS011;14732;51.074;3.788;2024-03-22T10:40:45;12.23;;;4.63;;
27225;SDS011;14732;51.074;3.788;2024-03-22T10:43:12;10.95;;;4.30;;
27225;SDS011;14732;51.074;3.788;2024-03-22T10:48:10;11.13;;;4.00;;
27225;SDS011;14732;51.074;3.788;2024-03-22T10:53:16;11.10;;;4.05;;
27225;SDS011;14732;51.074;3.788;2024-03-22T10:55:46;16.88;;;4.13;;
27225;SDS011;14732;51.074;3.788;2024-03-22T10:58:17;15.45;;;4.72;;
27225;SDS011;14732;51.074;3.788;2024-03-22T11:00:43;12.07;;;4.30;;
27225;SDS011;14732;51.074;3.788;2024-03-22T11:03:09;13.27;;;4.50;;
27225;SDS011;14732;51.074;3.788;2024-03-22T11:05:56;14.50;;;4.22;;
27225;SDS011;14732;51.074;3.788;2024-03-22T11:08:29;15.55;;;4.18;;
27225;SDS011;14732;51.074;3.788;2024-03-22T11:10:58;11.48;;;4.60;;
27225;SDS011;14732;51.074;3.788;2024-03-22T11:13:37;15.20;;;4.13;;
27225;SDS011;14732;51.074;3.788;2024-03-22T11:16:04;17.42;;;4.18;;
27225;SDS011;14732;51.074;3.788;2024-03-22T11:18:30;16.45;;;3.97;;
27225;SDS011;14732;51.074;3.788;2024-03-22T11:20:56;9.05;;;3.85;;
27225;SDS011;14732;51.074;3.788;2024-03-22T11:23:22;6.95;;;3.88;;
27225;SDS011;14732;51.074;3.788;2024-03-22T11:25:47;9.88;;;4.05;;
27225;SDS011;14732;51.074;3.788;2024-03-22T11:28:13;11.48;;;4.20;;
27225;SDS011;14732;51.074;3.788;2024-03-22T11:30:39;9.50;;;4.47;;
27225;SDS011;14732;51.074;3.788;2024-03-22T11:33:05;10.50;;;4.63;;
27225;SDS011;14732;51.074;3.788;2024-03-22T11:35:31;11.85;;;4.47;;
27225;SDS011;14732;51.074;3.788;2024-03-22T11:37:57;12.88;;;4.85;;
27225;SDS011;14732;51.074;3.788;2024-03-22T11:40:23;9.55;;;4.30;;
27225;SDS011;14732;51.074;3.788;2024-03-22T11:42:51;12.60;;;4.97;;
27225;SDS011;14732;51.074;3.788;2024-03-22T11:45:18;11.07;;;4.95;;
27225;SDS011;14732;51.074;3.788;2024-03-22T11:47:46;12.45;;;5.10;;
27225;SDS011;14732;51.074;3.788;2024-03-22T11:50:12;10.23;;;5.13;;
27225;SDS011;14732;51.074;3.788;2024-03-22T11:52:42;14.57;;;5.45;;
27225;SDS011;14732;51.074;3.788;2024-03-22T11:55:10;12.10;;;5.40;;
27225;SDS011;14732;51.074;3.788;2024-03-22T11:57:36;9.93;;;5.22;;
27225;SDS011;14732;51.074;3.788;2024-03-22T12:00:02;12.07;;;4.97;;
27225;SDS011;14732;51.074;3.788;2024-03-22T12:02:31;12.93;;;5.00;;
27225;SDS011;14732;51.074;3.788;2024-03-22T12:04:57;13.15;;;5.65;;
27225;SDS011;14732;51.074;3.788;2024-03-22T12:07:23;12.73;;;6.00;;
27225;SDS011;14732;51.074;3.788;2024-03-22T12:09:49;14.18;;;6.07;;
27225;SDS011;14732;51.074;3.788;2024-03-22T12:12:15;12.20;;;6.15;;
27225;SDS011;14732;51.074;3.788;2024-03-22T12:14:40;14.27;;;6.50;;
27225;SDS011;14732;51.074;3.788;2024-03-22T12:17:06;12.75;;;6.00;;
27225;SDS011;14732;51.074;3.788;2024-03-22T12:19:33;15.13;;;6.85;;
27225;SDS011;14732;51.074;3.788;2024-03-22T12:21:59;17.02;;;6.72;;
27225;SDS011;14732;51.074;3.788;2024-03-22T12:24:25;12.98;;;7.28;;
27225;SDS011;14732;51.074;3.788;2024-03-22T12:26:52;19.45;;;6.93;;
27225;SDS011;14732;51.074;3.788;2024-03-22T12:29:18;16.42;;;7.20;;
27225;SDS011;14732;51.074;3.788;2024-03-22T12:31:45;13.73;;;7.13;;
27225;SDS011;14732;51.074;3.788;2024-03-22T12:34:11;13.85;;;7.03;;
27225;SDS011;14732;51.074;3.788;2024-03-22T12:36:37;12.20;;;6.88;;
27225;SDS011;14732;51.074;3.788;2024-03-22T12:39:03;13.32;;;7.60;;
27225;SDS011;14732;51.074;3.788;2024-03-22T12:41:29;16.33;;;7.93;;
27225;SDS011;14732;51.074;3.788;2024-03-22T12:43:56;16.42;;;7.57;;
27225;SDS011;14732;51.074;3.788;2024-03-22T12:46:21;15.15;;;8.02;;
27225;SDS011;14732;51.074;3.788;2024-03-22T12:48:47;14.52;;;7.68;;
27225;SDS011;14732;51.074;3.788;2024-03-22T12:51:13;21.52;;;8.27;;
27225;SDS011;14732;51.074;3.788;2024-03-22T12:53:39;17.55;;;8.23;;
27225;SDS011;14732;51.074;3.788;2024-03-22T12:56:05;19.52;;;9.40;;
27225;SDS011;14732;51.074;3.788;2024-03-22T12:58:31;15.90;;;8.73;;
27225;SDS011;14732;51.074;3.788;2024-03-22T13:00:57;17.05;;;8.68;;
27225;SDS011;14732;51.074;3.788;2024-03-22T13:03:24;15.13;;;8.10;;
27225;SDS011;14732;51.074;3.788;2024-03-22T13:05:50;18.17;;;8.10;;
27225;SDS011;14732;51.074;3.788;2024-03-22T13:08:16;21.73;;;7.93;;
27225;SDS011;14732;51.074;3.788;2024-03-22T13:10:41;19.35;;;8.02;;
27225;SDS011;14732;51.074;3.788;2024-03-22T13:13:09;12.82;;;6.50;;
27225;SDS011;14732;51.074;3.788;2024-03-22T13:15:35;14.40;;;6.90;;
27225;SDS011;14732;51.074;3.788;2024-03-22T13:18:04;11.25;;;6.65;;
27225;SDS011;14732;51.074;3.788;2024-03-22T13:20:30;12.55;;;6.15;;
27225;SDS011;14732;51.074;3.788;2024-03-22T13:22:55;13.35;;;6.28;;
27225;SDS011;14732;51.074;3.788;2024-03-22T13:25:21;13.00;;;6.25;;
27225;SDS011;14732;51.074;3.788;2024-03-22T13:27:47;12.32;;;7.50;;
27225;SDS011;14732;51.074;3.788;2024-03-22T13:30:13;16.00;;;8.43;;
27225;SDS011;14732;51.074;3.788;2024-03-22T13:32:40;17.90;;;8.90;;
27225;SDS011;14732;51.074;3.788;2024-03-22T13:35:06;20.52;;;9.65;;
27225;SDS011;14732;51.074;3.788;2024-03-22T13:37:32;16.67;;;9.68;;
27225;SDS011;14732;51.074;3.788;2024-03-22T13:39:58;15.10;;;9.73;;
27225;SDS011;14732;51.074;3.788;2024-03-22T13:42:25;19.40;;;10.10;;
27225;SDS011;14732;51.074;3.788;2024-03-22T13:44:51;17.05;;;10.65;;
27225;SDS011;14732;51.074;3.788;2024-03-22T13:47:16;16.23;;;10.20;;
27225;SDS011;14732;51.074;3.788;2024-03-22T13:49:43;15.02;;;10.10;;
27225;SDS011;14732;51.074;3.788;2024-03-22T13:52:09;20.20;;;10.55;;
27225;SDS011;14732;51.074;3.788;2024-03-22T13:54:36;15.98;;;9.63;;
27225;SDS011;14732;51.074;3.788;2024-03-22T13:57:01;18.00;;;10.80;;
27225;SDS011;14732;51.074;3.788;2024-03-22T13:59:28;14.93;;;9.38;;
27225;SDS011;14732;51.074;3.788;2024-03-22T14:01:54;18.55;;;10.77;;
27225;SDS011;14732;51.074;3.788;2024-03-22T14:04:19;15.00;;;9.80;;
27225;SDS011;14732;51.074;3.788;2024-03-22T14:06:45;15.57;;;10.23;;
27225;SDS011;14732;51.074;3.788;2024-03-22T14:09:11;13.63;;;9.48;;
27225;SDS011;14732;51.074;3.788;2024-03-22T14:11:38;16.38;;;9.60;;
27225;SDS011;14732;51.074;3.788;2024-03-22T14:14:04;17.45;;;10.30;;
27225;SDS011;14732;51.074;3.788;2024-03-22T14:16:30;14.63;;;9.50;;
27225;SDS011;14732;51.074;3.788;2024-03-22T14:18:55;14.82;;;9.90;;
27225;SDS011;14732;51.074;3.788;2024-03-22T14:21:21;13.20;;;9.05;;
27225;SDS011;14732;51.074;3.788;2024-03-22T14:23:47;15.60;;;9.65;;
27225;SDS011;14732;51.074;3.788;2024-03-22T14:26:15;11.35;;;8.60;;
27225;SDS011;14732;51.074;3.788;2024-03-22T14:28:43;12.82;;;8.95;;
27225;SDS011;14732;51.074;3.788;2024-03-22T14:31:10;13.88;;;9.40;;